createdAt,value
2022-12-27T00:00:58.642Z,99930.50
2022-12-27T00:03:26.410Z,99934.81
2022-12-27T00:05:54.029Z,99935.72
2022-12-27T00:08:21.717Z,99947.00
2022-12-27T00:10:49.371Z,99950.47
2022-12-27T00:13:17.058Z,99947.00
2022-12-27T00:15:46.266Z,99946.16
2022-12-27T00:18:13.839Z,99953.09
2022-12-27T00:20:41.492Z,99951.38
2022-12-27T00:23:09.116Z,99953.13
2022-12-27T00:25:36.905Z,99958.31
2022-12-27T00:28:04.695Z,99934.03
2022-12-27T00:30:32.444Z,99949.66
2022-12-27T00:33:01.555Z,99953.13
2022-12-27T00:35:29.194Z,99941.84
2022-12-27T00:37:56.889Z,99966.16
2022-12-27T00:40:24.487Z,99967.88
2022-12-27T00:42:52.120Z,99962.66
2022-12-27T00:45:19.732Z,99973.97
2022-12-27T00:47:47.375Z,99976.56
2022-12-27T00:50:16.419Z,99989.56
2022-12-27T00:52:44.082Z,99985.22
2022-12-27T00:55:11.737Z,99976.53
2022-12-27T00:57:39.388Z,99980.88
2022-12-27T01:00:10.463Z,99973.06
2022-12-27T01:02:38.495Z,99957.41
2022-12-27T01:05:07.234Z,99993.84
2022-12-27T01:07:36.311Z,99996.44
2022-12-27T01:10:04.306Z,99988.63
2022-12-27T01:12:32.204Z,99995.59
2022-12-27T01:14:59.977Z,100002.53
2022-12-27T01:17:27.839Z,100002.53
2022-12-27T01:19:55.808Z,99996.50
2022-12-27T01:22:23.739Z,100000.78
2022-12-27T01:24:53.019Z,99993.00
2022-12-27T01:27:20.632Z,99993.88
2022-12-27T01:29:48.347Z,100013.84
2022-12-27T01:32:16.006Z,100000.84
2022-12-27T01:34:43.681Z,100011.25
2022-12-27T01:37:11.458Z,99981.72
2022-12-27T01:39:39.117Z,100022.50
2022-12-27T01:42:42.027Z,100022.50
2022-12-27T01:45:15.655Z,100006.84
2022-12-27T01:47:48.840Z,100026.81
2022-12-27T01:50:27.663Z,100038.06
2022-12-27T01:53:00.466Z,100039.84
2022-12-27T01:55:32.728Z,100040.69
2022-12-27T01:58:07.353Z,100043.28
2022-12-27T02:00:35.040Z,100045.88
2022-12-27T02:03:03.648Z,100049.38
2022-12-27T02:05:33.575Z,100046.78
2022-12-27T02:08:10.560Z,100046.78
2022-12-27T02:10:38.361Z,99986.00
2022-12-27T02:13:07.645Z,100042.41
2022-12-27T02:15:35.820Z,100054.56
2022-12-27T02:18:03.507Z,100045.91
2022-12-27T02:20:37.243Z,100053.72
2022-12-27T02:23:53.448Z,100046.78
2022-12-27T02:26:53.171Z,100051.09
2022-12-27T02:29:31.872Z,100041.53
2022-12-27T02:32:05.494Z,100049.38
2022-12-27T02:34:39.561Z,100050.22
2022-12-27T02:37:11.175Z,100058.88
2022-12-27T02:39:42.456Z,100055.41
2022-12-27T02:42:28.559Z,100051.06
2022-12-27T02:45:11.652Z,100056.25
2022-12-27T02:47:57.505Z,100050.19
2022-12-27T02:50:47.893Z,100054.53
2022-12-27T02:53:20.655Z,100064.06
2022-12-27T02:56:18.561Z,100050.16
2022-12-27T02:58:58.240Z,100042.38
2022-12-27T03:01:53.691Z,100043.25
2022-12-27T03:04:29.809Z,100046.75
2022-12-27T03:07:09.063Z,100030.19
2022-12-27T03:10:02.064Z,100045.84
2022-12-27T03:12:58.010Z,100034.53
2022-12-27T03:15:56.211Z,100033.66
2022-12-27T03:18:35.334Z,99998.03
2022-12-27T03:21:22.533Z,100039.75
2022-12-27T03:24:09.659Z,100051.94
2022-12-27T03:26:39.072Z,100055.41
2022-12-27T03:29:25.747Z,100059.78
2022-12-27T03:32:13.572Z,100046.75
2022-12-27T03:34:46.066Z,100058.91
2022-12-27T03:37:34.836Z,100064.13
2022-12-27T03:40:07.106Z,100062.41
2022-12-27T03:42:55.469Z,100054.59
2022-12-27T03:45:43.532Z,100053.72
2022-12-27T03:48:12.521Z,100060.69
2022-12-27T03:50:45.049Z,100050.28
2022-12-27T03:53:16.716Z,100056.34
2022-12-27T03:55:44.811Z,100053.75
2022-12-27T03:58:12.539Z,100056.34
2022-12-27T04:00:40.413Z,100043.28
2022-12-27T04:03:08.102Z,100055.50
2022-12-27T04:05:35.793Z,100053.72
2022-12-27T04:08:22.316Z,100018.97
2022-12-27T04:11:07.726Z,100056.25
2022-12-27T04:13:53.067Z,100065.78
2022-12-27T04:16:38.564Z,100057.13
2022-12-27T04:19:23.976Z,100058.03
2022-12-27T04:22:08.934Z,100064.91
2022-12-27T04:24:55.731Z,100051.88
2022-12-27T04:27:41.018Z,100071.84
2022-12-27T04:30:27.439Z,100066.59
2022-12-27T04:33:12.873Z,100063.97
2022-12-27T04:35:40.483Z,100061.41
2022-12-27T04:38:08.113Z,100061.38
2022-12-27T04:40:54.818Z,100039.66
2022-12-27T04:43:40.131Z,100064.81
2022-12-27T04:46:28.996Z,100057.00
2022-12-27T04:49:14.459Z,100061.34
2022-12-27T04:51:59.534Z,100050.13
2022-12-27T04:54:44.778Z,100064.81
2022-12-27T04:57:13.803Z,100031.78
2022-12-27T04:59:59.053Z,100071.75
2022-12-27T05:02:26.848Z,100043.09
2022-12-27T05:04:54.796Z,100063.91
2022-12-27T05:07:36.384Z,100069.13
2022-12-27T05:10:23.236Z,100061.38
2022-12-27T05:13:09.895Z,100059.69
2022-12-27T05:15:37.658Z,100052.72
2022-12-27T05:18:05.416Z,100053.56
2022-12-27T05:20:34.786Z,100039.69
2022-12-27T05:23:34.745Z,100065.72
2022-12-27T05:26:02.523Z,100083.94
2022-12-27T05:28:31.595Z,100072.69
2022-12-27T05:31:02.705Z,100077.91
2022-12-27T05:33:32.194Z,100076.13
2022-12-27T05:36:00.866Z,100077.84
2022-12-27T05:38:28.579Z,100051.75
2022-12-27T05:40:59.961Z,100073.53
2022-12-27T05:43:28.509Z,100084.81
2022-12-27T05:46:03.173Z,100090.88
2022-12-27T05:48:31.012Z,100082.22
2022-12-27T05:50:58.748Z,100087.44
2022-12-27T05:53:26.557Z,100096.97
2022-12-27T05:55:57.702Z,100108.22
2022-12-27T05:58:26.211Z,100111.66
2022-12-27T06:00:54.020Z,100114.22
2022-12-27T06:03:23.763Z,100118.59
2022-12-27T06:05:51.668Z,100121.22
2022-12-27T06:08:19.399Z,100097.72
2022-12-27T06:10:47.135Z,100120.31
2022-12-27T06:13:14.992Z,100118.63
2022-12-27T06:15:42.657Z,100120.38
2022-12-27T06:18:10.343Z,100130.81
2022-12-27T06:20:39.387Z,100123.84
2022-12-27T06:23:07.093Z,100135.22
2022-12-27T06:25:34.837Z,100129.13
2022-12-27T06:28:02.620Z,100137.84
2022-12-27T06:30:35.850Z,100128.34
2022-12-27T06:33:03.971Z,100136.19
2022-12-27T06:35:31.609Z,100108.34
2022-12-27T06:38:00.679Z,100131.81
2022-12-27T06:40:28.399Z,100134.41
2022-12-27T06:42:56.114Z,100132.63
2022-12-27T06:45:24.015Z,100149.97
2022-12-27T06:47:51.777Z,100143.06
2022-12-27T06:50:19.618Z,100110.84
2022-12-27T06:52:47.376Z,100160.44
2022-12-27T06:55:16.711Z,100158.66
2022-12-27T06:57:44.460Z,100122.13
2022-12-27T07:00:13.388Z,100143.94
2022-12-27T07:02:41.303Z,100145.72
2022-12-27T07:05:09.641Z,100157.88
2022-12-27T07:07:37.383Z,100156.09
2022-12-27T07:10:05.601Z,100160.44
2022-12-27T07:12:36.792Z,100171.72
2022-12-27T07:15:05.808Z,100169.13
2022-12-27T07:17:34.946Z,100142.19
2022-12-27T07:20:02.826Z,100147.41
2022-12-27T07:22:30.522Z,100166.53
2022-12-27T07:24:58.443Z,100166.53
2022-12-27T07:27:26.471Z,100165.63
2022-12-27T07:29:55.637Z,100171.75
2022-12-27T07:32:23.354Z,100174.28
2022-12-27T07:34:51.150Z,100169.94
2022-12-27T07:37:18.871Z,100185.63
2022-12-27T07:39:46.911Z,100167.31
2022-12-27T07:42:14.683Z,100184.78
2022-12-27T07:44:42.337Z,100177.81
2022-12-27T07:47:11.343Z,100158.66
2022-12-27T07:49:39.126Z,100186.47
2022-12-27T07:52:06.916Z,100184.78
2022-12-27T07:54:34.600Z,100190.88
2022-12-27T07:57:02.236Z,100167.34
2022-12-27T07:59:29.945Z,100169.09
2022-12-27T08:02:06.725Z,100193.44
2022-12-27T08:04:38.204Z,100196.97
2022-12-27T08:07:08.207Z,100210.81
2022-12-27T08:09:38.371Z,100182.94
2022-12-27T08:12:06.865Z,100197.72
2022-12-27T08:14:34.942Z,100200.38
2022-12-27T08:17:05.947Z,100210.09
2022-12-27T08:19:33.683Z,100206.66
2022-12-27T08:22:05.129Z,100199.69
2022-12-27T08:24:33.092Z,100216.16
2022-12-27T08:27:00.752Z,100211.78
2022-12-27T08:29:28.614Z,100187.44
2022-12-27T08:31:56.258Z,100203.16
2022-12-27T08:34:23.851Z,100218.00
2022-12-27T08:36:56.192Z,100212.81
2022-12-27T08:39:25.845Z,100212.00
2022-12-27T08:41:54.312Z,100202.41
2022-12-27T08:44:22.172Z,100225.03
2022-12-27T08:46:49.984Z,100197.22
2022-12-27T08:49:17.720Z,100238.06
2022-12-27T08:51:45.465Z,100218.91
2022-12-27T08:54:13.130Z,100245.84
2022-12-27T08:56:42.637Z,100246.72
2022-12-27T08:59:10.325Z,100243.25
2022-12-27T09:01:38.192Z,100234.59
2022-12-27T09:04:06.236Z,100245.88
2022-12-27T09:06:33.999Z,100236.31
2022-12-27T09:09:01.752Z,100220.66
2022-12-27T09:11:31.540Z,100238.91
2022-12-27T09:14:02.389Z,100238.06
2022-12-27T09:16:30.879Z,100233.72
2022-12-27T09:19:00.186Z,100247.63
2022-12-27T09:21:29.496Z,100232.84
2022-12-27T09:23:57.450Z,100238.94
2022-12-27T09:26:27.367Z,100242.41
2022-12-27T09:28:55.520Z,100246.78
2022-12-27T09:31:25.531Z,100253.72
2022-12-27T09:33:53.872Z,100260.69
2022-12-27T09:36:22.919Z,100256.34
2022-12-27T09:38:52.629Z,100264.16
2022-12-27T09:42:11.826Z,100263.28
2022-12-27T09:44:14.509Z,100264.16
2022-12-27T09:46:45.363Z,100268.50
2022-12-27T09:49:15.063Z,100273.72
2022-12-27T09:51:47.203Z,100244.16
2022-12-27T09:54:16.298Z,100270.25
2022-12-27T09:57:18.265Z,100261.56
2022-12-27T09:59:35.323Z,100270.25
2022-12-27T10:02:05.506Z,100252.84
2022-12-27T10:05:09.763Z,100273.72
2022-12-27T10:07:31.001Z,100276.34
2022-12-27T10:10:05.146Z,100265.88
2022-12-27T10:13:02.713Z,100272.84
2022-12-27T10:15:36.154Z,100266.75
2022-12-27T10:18:21.611Z,100247.59
2022-12-27T10:20:59.712Z,100243.22
2022-12-27T10:23:29.922Z,100238.00
2022-12-27T10:26:00.206Z,100244.94
2022-12-27T10:28:34.749Z,100242.34
2022-12-27T10:31:04.240Z,100244.06
2022-12-27T10:33:34.963Z,100230.97
2022-12-27T10:36:07.527Z,100240.50
2022-12-27T10:38:35.598Z,100241.34
2022-12-27T10:41:17.052Z,100236.06
2022-12-27T10:43:45.718Z,100233.38
2022-12-27T10:46:14.896Z,100230.66
2022-12-27T10:49:20.097Z,100227.00
2022-12-27T10:51:43.271Z,100224.53
2022-12-27T10:54:13.385Z,100241.09
2022-12-27T10:56:42.622Z,100235.81
2022-12-27T10:59:14.990Z,100200.16
2022-12-27T11:01:42.770Z,100241.00
2022-12-27T11:04:20.050Z,100236.47
2022-12-27T11:06:49.760Z,100232.09
2022-12-27T11:09:35.609Z,100220.75
2022-12-27T11:12:13.880Z,100226.75
2022-12-27T11:14:42.106Z,100225.78
2022-12-27T11:17:11.343Z,100220.59
2022-12-27T11:19:42.127Z,100214.44
2022-12-27T11:22:10.059Z,100225.72
2022-12-27T11:24:38.200Z,100174.50
2022-12-27T11:27:06.249Z,100216.91
2022-12-27T11:29:34.733Z,100211.69
2022-12-27T11:32:08.646Z,100209.03
2022-12-27T11:34:40.354Z,100211.50
2022-12-27T11:37:14.595Z,100203.78
2022-12-27T11:39:44.204Z,100185.66
2022-12-27T11:42:18.974Z,100173.47
2022-12-27T11:44:49.244Z,100216.91
2022-12-27T11:47:31.652Z,100207.97
2022-12-27T11:50:07.020Z,100179.50
2022-12-27T11:52:57.392Z,100214.09
2022-12-27T11:55:43.361Z,100215.94
2022-12-27T11:58:35.254Z,100211.56
2022-12-27T12:01:17.194Z,100197.66
2022-12-27T12:04:06.372Z,100201.84
2022-12-27T12:06:43.969Z,100211.47
2022-12-27T12:09:24.475Z,100209.81
2022-12-27T12:12:05.913Z,100198.59
2022-12-27T12:14:46.663Z,100215.09
2022-12-27T12:17:36.199Z,100185.56
2022-12-27T12:20:50.555Z,100210.63
2022-12-27T12:23:28.075Z,100203.78
2022-12-27T12:26:21.556Z,100214.34
2022-12-27T12:29:21.965Z,100221.31
2022-12-27T12:32:16.049Z,100218.56
2022-12-27T12:34:55.377Z,100228.22
2022-12-27T12:37:34.722Z,100204.50
2022-12-27T12:40:15.595Z,100186.31
2022-12-27T12:42:54.140Z,100210.59
2022-12-27T12:45:45.280Z,100209.81
2022-12-27T12:48:38.209Z,100196.09
2022-12-27T12:51:16.511Z,100217.03
2022-12-27T12:53:54.604Z,100210.13
2022-12-27T12:56:43.281Z,100217.91
2022-12-27T12:59:28.947Z,100216.22
2022-12-27T13:02:03.824Z,100206.69
2022-12-27T13:04:53.642Z,100208.53
2022-12-27T13:07:39.734Z,100210.22
2022-12-27T13:10:47.971Z,100211.97
2022-12-27T13:13:23.760Z,100170.91
2022-12-27T13:16:04.691Z,100202.00
2022-12-27T13:18:37.159Z,100172.66
2022-12-27T13:21:16.720Z,100189.84
2022-12-27T13:23:55.711Z,100189.75
2022-12-27T13:26:34.497Z,100182.84
2022-12-27T13:29:17.449Z,100191.75
2022-12-27T13:31:52.142Z,100182.97
2022-12-27T13:34:30.623Z,100163.78
2022-12-27T13:37:11.806Z,100167.31
2022-12-27T13:39:48.495Z,100180.41
2022-12-27T13:42:40.916Z,100179.56
2022-12-27T13:45:23.887Z,100178.75
2022-12-27T13:48:04.238Z,100181.31
2022-12-27T13:50:55.787Z,100182.97
2022-12-27T13:53:50.687Z,100132.59
2022-12-27T13:56:53.409Z,100161.25
2022-12-27T13:59:29.913Z,100156.81
2022-12-27T14:02:20.423Z,100147.22
2022-12-27T14:05:15.849Z,100123.84
2022-12-27T14:07:52.763Z,100152.53
2022-12-27T14:10:30.376Z,100165.72
2022-12-27T14:13:00.791Z,100162.31
2022-12-27T14:15:37.574Z,100158.81
2022-12-27T14:18:22.726Z,100156.28
2022-12-27T14:21:06.839Z,100150.09
2022-12-27T14:23:42.012Z,100147.63
2022-12-27T14:26:40.447Z,100145.09
2022-12-27T14:29:46.753Z,100140.91
2022-12-27T14:32:51.335Z,100121.00
2022-12-27T14:36:01.655Z,100150.56
2022-12-27T14:38:51.152Z,100144.53
2022-12-27T14:41:51.018Z,100151.47
2022-12-27T14:45:02.871Z,100158.56
2022-12-27T14:48:04.852Z,100151.56
2022-12-27T14:50:59.032Z,100162.09
2022-12-27T14:54:04.047Z,100162.16
2022-12-27T14:56:35.043Z,100149.97
2022-12-27T14:59:15.235Z,100172.63
2022-12-27T15:01:53.000Z,100166.56
2022-12-27T15:04:44.461Z,100166.53
2022-12-27T15:07:23.743Z,100171.81
2022-12-27T15:10:00.929Z,100169.19
2022-12-27T15:12:36.265Z,100165.78
2022-12-27T15:15:24.361Z,100174.47
2022-12-27T15:18:15.882Z,100174.50
2022-12-27T15:21:03.396Z,100178.03
2022-12-27T15:23:38.107Z,100190.19
2022-12-27T15:26:16.109Z,100169.34
2022-12-27T15:28:56.133Z,100197.16
2022-12-27T15:31:30.938Z,100191.97
2022-12-27T15:34:11.596Z,100172.81
2022-12-27T15:36:42.380Z,100155.41
2022-12-27T15:39:46.388Z,100185.00
2022-12-27T15:42:38.720Z,100174.56
2022-12-27T15:45:18.258Z,100172.78
2022-12-27T15:47:54.660Z,100169.31
2022-12-27T15:50:46.470Z,100171.03
2022-12-27T15:53:29.184Z,100164.09
2022-12-27T15:56:09.843Z,100171.03
2022-12-27T15:58:39.671Z,100164.09
2022-12-27T16:01:09.266Z,100166.69
2022-12-27T16:03:39.284Z,100162.34
2022-12-27T16:06:08.746Z,100157.97
2022-12-27T16:08:38.843Z,100157.97
2022-12-27T16:11:11.992Z,100152.78
2022-12-27T16:13:52.321Z,100165.81
2022-12-27T16:16:57.028Z,100156.25
2022-12-27T16:19:40.783Z,100145.81
2022-12-27T16:22:23.265Z,100151.91
2022-12-27T16:24:50.988Z,100152.75
2022-12-27T16:27:28.675Z,100157.09
2022-12-27T16:29:58.479Z,100120.63
2022-12-27T16:32:28.310Z,100146.66
2022-12-27T16:34:57.315Z,100143.19
2022-12-27T16:37:28.662Z,100152.75
2022-12-27T16:40:20.051Z,100151.03
2022-12-27T16:43:25.667Z,100150.13
2022-12-27T16:46:01.975Z,100129.28
2022-12-27T16:48:37.221Z,100136.19
2022-12-27T16:51:13.953Z,100143.13
2022-12-27T16:53:57.424Z,100144.84
2022-12-27T16:56:26.541Z,100143.09
2022-12-27T16:58:54.199Z,100141.38
2022-12-27T17:01:55.662Z,100139.56
2022-12-27T17:04:56.533Z,100133.50
2022-12-27T17:07:46.833Z,100137.03
2022-12-27T17:10:59.648Z,100135.28
2022-12-27T17:13:34.948Z,100131.88
2022-12-27T17:16:07.726Z,100129.28
2022-12-27T17:18:37.187Z,100130.19
2022-12-27T17:21:08.279Z,100120.66
2022-12-27T17:23:41.120Z,100125.84
2022-12-27T17:26:37.996Z,100122.38
2022-12-27T17:29:13.743Z,100122.38
2022-12-27T17:31:46.849Z,100117.16
2022-12-27T17:34:19.921Z,100111.97
2022-12-27T17:36:58.048Z,100104.16
2022-12-27T17:39:43.176Z,100104.16
2022-12-27T17:42:32.658Z,100099.84
2022-12-27T17:45:12.414Z,100093.75
2022-12-27T17:47:54.222Z,100088.53
2022-12-27T17:50:25.605Z,100052.94
2022-12-27T17:53:31.195Z,100096.31
2022-12-27T17:56:22.370Z,100090.22
2022-12-27T17:58:51.757Z,100091.09
2022-12-27T18:01:22.991Z,100095.44
2022-12-27T18:03:51.435Z,100092.81
2022-12-27T18:06:20.181Z,100084.13
2022-12-27T18:08:50.565Z,100090.19
2022-12-27T18:11:23.504Z,100081.47
2022-12-27T18:13:56.655Z,100081.47
2022-12-27T18:16:26.003Z,100077.94
2022-12-27T18:18:54.965Z,100074.41
2022-12-27T18:21:24.851Z,100071.81
2022-12-27T18:23:54.476Z,100058.75
2022-12-27T18:26:37.604Z,100057.03
2022-12-27T18:29:05.762Z,100064.88
2022-12-27T18:31:36.887Z,100064.00
2022-12-27T18:34:07.942Z,100054.41
2022-12-27T18:36:38.809Z,100052.72
2022-12-27T18:39:14.430Z,100048.38
2022-12-27T18:41:47.438Z,100044.06
2022-12-27T18:44:24.743Z,100043.25
2022-12-27T18:46:56.370Z,100031.97
2022-12-27T18:49:26.596Z,100032.00
2022-12-27T18:51:55.569Z,100018.13
2022-12-27T18:54:36.392Z,100025.97
2022-12-27T18:57:06.510Z,100020.75
2022-12-27T18:59:36.114Z,100019.91
2022-12-27T19:02:32.083Z,100018.16
2022-12-27T19:05:24.763Z,100023.41
2022-12-27T19:07:53.933Z,100024.28
2022-12-27T19:10:24.583Z,100025.16
2022-12-27T19:12:52.348Z,100015.59
2022-12-27T19:15:24.861Z,100011.25
2022-12-27T19:17:54.964Z,100013.00
2022-12-27T19:20:24.548Z,100011.28
2022-12-27T19:22:55.295Z,100006.06
2022-12-27T19:25:26.633Z,100000.84
2022-12-27T19:28:02.835Z,99993.91
2022-12-27T19:30:35.581Z,99996.50
2022-12-27T19:33:07.193Z,99996.50
2022-12-27T19:35:34.888Z,99978.28
2022-12-27T19:38:02.748Z,99982.63
2022-12-27T19:40:31.898Z,99977.41
2022-12-27T19:42:59.679Z,99983.50
2022-12-27T19:45:28.741Z,99974.81
2022-12-27T19:47:56.506Z,99970.47
2022-12-27T19:50:24.157Z,99977.41
2022-12-27T19:52:52.249Z,99970.47
2022-12-27T19:55:25.896Z,99968.75
2022-12-27T19:57:55.003Z,99962.66
2022-12-27T20:00:24.203Z,99960.94
2022-12-27T20:02:52.751Z,99935.78
2022-12-27T20:06:11.441Z,99956.59
2022-12-27T20:08:24.493Z,99959.19
2022-12-27T20:10:52.109Z,99944.44
2022-12-27T20:13:21.836Z,99953.13
2022-12-27T20:15:49.716Z,99943.56
2022-12-27T20:18:17.725Z,99954.88
2022-12-27T20:20:45.863Z,99944.44
2022-12-27T20:23:13.716Z,99947.06
2022-12-27T20:25:43.380Z,99946.19
2022-12-27T20:28:11.599Z,99946.19
2022-12-27T20:30:42.824Z,99948.78
2022-12-27T20:33:11.964Z,99945.31
2022-12-27T20:35:39.715Z,99941.81
2022-12-27T20:38:08.690Z,99940.09
2022-12-27T20:40:36.318Z,99932.28
2022-12-27T20:43:04.172Z,99939.22
2022-12-27T20:45:31.898Z,99915.81
2022-12-27T20:48:01.064Z,99930.56
2022-12-27T20:50:29.153Z,99933.13
2022-12-27T20:52:56.889Z,99927.06
2022-12-27T20:55:24.562Z,99928.78
2022-12-27T20:57:52.272Z,99930.53
2022-12-27T21:00:20.272Z,99927.06
2022-12-27T21:02:49.960Z,99927.06
2022-12-27T21:05:19.392Z,99930.53
2022-12-27T21:07:47.142Z,99927.06
2022-12-27T21:10:14.939Z,99927.06
2022-12-27T21:12:42.869Z,99914.03
2022-12-27T21:15:11.617Z,99921.84
2022-12-27T21:17:39.332Z,99925.31
2022-12-27T21:20:10.985Z,99924.44
2022-12-27T21:22:40.127Z,99909.72
2022-12-27T21:25:08.435Z,99916.66
2022-12-27T21:27:36.188Z,99910.56
2022-12-27T21:30:05.071Z,99918.41
2022-12-27T21:32:32.768Z,99907.97
2022-12-27T21:35:00.425Z,99902.75
2022-12-27T21:37:28.088Z,99908.81
2022-12-27T21:39:57.068Z,99900.16
2022-12-27T21:42:24.712Z,99895.81
2022-12-27T21:44:52.477Z,99889.75
2022-12-27T21:47:20.669Z,99885.41
2022-12-27T21:49:48.431Z,99880.22
2022-12-27T21:52:16.142Z,99876.75
2022-12-27T21:54:43.797Z,99879.34
2022-12-27T21:57:12.919Z,99868.09
2022-12-27T21:59:40.624Z,99863.75
2022-12-27T22:02:09.771Z,99853.34
2022-12-27T22:04:37.575Z,99868.94
2022-12-27T22:07:05.256Z,99866.34
2022-12-27T22:09:32.951Z,99858.56
2022-12-27T22:12:00.556Z,99864.63
2022-12-27T22:14:36.578Z,99871.56
2022-12-27T22:17:04.806Z,99865.47
2022-12-27T22:19:32.431Z,99873.28
2022-12-27T22:22:00.111Z,99878.50
2022-12-27T22:24:27.705Z,99867.22
2022-12-27T22:26:55.337Z,99875.91
2022-12-27T22:29:24.822Z,99875.03
2022-12-27T22:31:53.812Z,99863.75
2022-12-27T22:34:21.496Z,99857.69
2022-12-27T22:36:51.251Z,99850.75
2022-12-27T22:39:18.982Z,99856.81
2022-12-27T22:41:46.822Z,99849.88
2022-12-27T22:44:16.019Z,99845.53
2022-12-27T22:47:15.620Z,99840.34
2022-12-27T22:49:33.023Z,99829.06
2022-12-27T22:52:00.871Z,99831.66
2022-12-27T22:55:04.723Z,99822.13
2022-12-27T22:57:16.655Z,99822.13
2022-12-27T22:59:44.421Z,99780.50
2022-12-27T23:02:12.881Z,99816.06
2022-12-27T23:04:42.287Z,99807.38
2022-12-27T23:07:10.161Z,99813.47
2022-12-27T23:09:42.808Z,99808.25
2022-12-27T23:12:11.230Z,99816.06
2022-12-27T23:14:39.011Z,99823.00
2022-12-27T23:17:06.875Z,99820.41
2022-12-27T23:19:34.555Z,99821.25
2022-12-27T23:22:03.541Z,99816.06
2022-12-27T23:24:31.436Z,99816.03
2022-12-27T23:26:59.387Z,99819.50
2022-12-27T23:29:27.238Z,99823.84
2022-12-27T23:31:55.854Z,99816.03
2022-12-27T23:34:28.701Z,99810.81
2022-12-27T23:36:59.855Z,99802.97
2022-12-27T23:39:29.220Z,99808.16
2022-12-27T23:41:57.053Z,99802.94
2022-12-27T23:44:34.476Z,99794.25
2022-12-27T23:47:03.234Z,99798.59
2022-12-27T23:49:31.020Z,99778.59
2022-12-27T23:51:58.973Z,99783.81
2022-12-27T23:54:26.589Z,99780.31
2022-12-27T23:56:55.620Z,99774.22
2022-12-27T23:59:23.234Z,99767.28
